sensor_id;sensor_type;location;lat;lon;timestamp;P1;durP1;ratioP1;P2;durP2;ratioP2
60494;SDS011;46342;49.046;11.920;2023-06-14T00:00:17;3.25;;;2.95;;
60494;SDS011;46342;49.046;11.920;2023-06-14T00:02:42;4.32;;;3.00;;
60494;SDS011;46342;49.046;11.920;2023-06-14T00:05:08;3.25;;;2.83;;
60494;SDS011;46342;49.046;11.920;2023-06-14T00:07:34;3.83;;;2.63;;
60494;SDS011;46342;49.046;11.920;2023-06-14T00:10:02;4.38;;;3.05;;
60494;SDS011;46342;49.046;11.920;2023-06-14T00:14:55;4.97;;;2.67;;
60494;SDS011;46342;49.046;11.920;2023-06-14T00:17:20;4.53;;;2.55;;
60494;SDS011;46342;49.046;11.920;2023-06-14T00:19:47;4.60;;;3.25;;
60494;SDS011;46342;49.046;11.920;2023-06-14T00:22:13;3.05;;;2.60;;
60494;SDS011;46342;49.046;11.920;2023-06-14T00:24:39;4.38;;;3.05;;
60494;SDS011;46342;49.046;11.920;2023-06-14T00:27:04;5.80;;;2.72;;
60494;SDS011;46342;49.046;11.920;2023-06-14T00:29:30;3.35;;;2.33;;
60494;SDS011;46342;49.046;11.920;2023-06-14T00:31:56;4.55;;;3.17;;
60494;SDS011;46342;49.046;11.920;2023-06-14T00:34:21;5.15;;;2.90;;
60494;SDS011;46342;49.046;11.920;2023-06-14T00:36:47;4.82;;;3.38;;
60494;SDS011;46342;49.046;11.920;2023-06-14T00:39:13;3.50;;;2.65;;
60494;SDS011;46342;49.046;11.920;2023-06-14T00:41:38;3.13;;;2.70;;
60494;SDS011;46342;49.046;11.920;2023-06-14T00:44:04;4.15;;;2.88;;
60494;SDS011;46342;49.046;11.920;2023-06-14T00:46:30;3.13;;;2.58;;
60494;SDS011;46342;49.046;11.920;2023-06-14T00:48:56;3.30;;;2.58;;
60494;SDS011;46342;49.046;11.920;2023-06-14T00:51:23;3.63;;;2.63;;
60494;SDS011;46342;49.046;11.920;2023-06-14T00:53:49;4.65;;;2.72;;
60494;SDS011;46342;49.046;11.920;2023-06-14T00:56:15;4.88;;;2.63;;
60494;SDS011;46342;49.046;11.920;2023-06-14T00:58:41;3.88;;;2.80;;
60494;SDS011;46342;49.046;11.920;2023-06-14T01:01:08;4.40;;;3.03;;
60494;SDS011;46342;49.046;11.920;2023-06-14T01:03:33;6.55;;;2.97;;
60494;SDS011;46342;49.046;11.920;2023-06-14T01:06:00;4.15;;;2.95;;
60494;SDS011;46342;49.046;11.920;2023-06-14T01:08:46;3.78;;;2.63;;
60494;SDS011;46342;49.046;11.920;2023-06-14T01:11:18;3.88;;;2.95;;
60494;SDS011;46342;49.046;11.920;2023-06-14T01:13:52;3.67;;;2.63;;
60494;SDS011;46342;49.046;11.920;2023-06-14T01:16:21;5.15;;;2.17;;
60494;SDS011;46342;49.046;11.920;2023-06-14T01:18:47;4.45;;;2.63;;
60494;SDS011;46342;49.046;11.920;2023-06-14T01:21:23;3.72;;;2.50;;
60494;SDS011;46342;49.046;11.920;2023-06-14T01:23:50;9.38;;;3.20;;
60494;SDS011;46342;49.046;11.920;2023-06-14T01:26:21;4.20;;;2.60;;
60494;SDS011;46342;49.046;11.920;2023-06-14T01:28:48;3.55;;;2.38;;
60494;SDS011;46342;49.046;11.920;2023-06-14T01:31:19;2.95;;;2.58;;
60494;SDS011;46342;49.046;11.920;2023-06-14T01:33:46;4.30;;;2.80;;
60494;SDS011;46342;49.046;11.920;2023-06-14T01:36:14;10.48;;;2.70;;
60494;SDS011;46342;49.046;11.920;2023-06-14T01:38:41;3.17;;;2.45;;
60494;SDS011;46342;49.046;11.920;2023-06-14T01:41:08;7.07;;;2.70;;
60494;SDS011;46342;49.046;11.920;2023-06-14T01:43:34;4.22;;;2.63;;
60494;SDS011;46342;49.046;11.920;2023-06-14T01:46:01;3.40;;;2.88;;
60494;SDS011;46342;49.046;11.920;2023-06-14T01:48:28;3.78;;;2.85;;
60494;SDS011;46342;49.046;11.920;2023-06-14T01:50:53;4.50;;;3.10;;
60494;SDS011;46342;49.046;11.920;2023-06-14T01:53:19;4.90;;;2.60;;
60494;SDS011;46342;49.046;11.920;2023-06-14T01:55:45;4.00;;;3.20;;
60494;SDS011;46342;49.046;11.920;2023-06-14T02:00:41;3.03;;;2.50;;
60494;SDS011;46342;49.046;11.920;2023-06-14T02:03:08;3.77;;;2.63;;
60494;SDS011;46342;49.046;11.920;2023-06-14T02:05:33;3.65;;;2.53;;
60494;SDS011;46342;49.046;11.920;2023-06-14T02:07:59;3.35;;;2.72;;
60494;SDS011;46342;49.046;11.920;2023-06-14T02:10:25;3.72;;;2.80;;
60494;SDS011;46342;49.046;11.920;2023-06-14T02:12:51;4.20;;;2.90;;
60494;SDS011;46342;49.046;11.920;2023-06-14T02:15:16;3.47;;;2.75;;
60494;SDS011;46342;49.046;11.920;2023-06-14T02:17:46;3.38;;;2.60;;
60494;SDS011;46342;49.046;11.920;2023-06-14T02:20:14;5.70;;;2.63;;
60494;SDS011;46342;49.046;11.920;2023-06-14T02:22:40;2.90;;;2.60;;
60494;SDS011;46342;49.046;11.920;2023-06-14T02:25:06;8.40;;;2.65;;
60494;SDS011;46342;49.046;11.920;2023-06-14T02:27:32;5.18;;;2.85;;
60494;SDS011;46342;49.046;11.920;2023-06-14T02:29:58;3.65;;;2.75;;
60494;SDS011;46342;49.046;11.920;2023-06-14T02:32:25;4.90;;;2.97;;
60494;SDS011;46342;49.046;11.920;2023-06-14T02:34:52;3.83;;;2.95;;
60494;SDS011;46342;49.046;11.920;2023-06-14T02:37:18;5.63;;;3.00;;
60494;SDS011;46342;49.046;11.920;2023-06-14T02:39:44;3.80;;;3.10;;
60494;SDS011;46342;49.046;11.920;2023-06-14T02:42:10;9.07;;;3.63;;
60494;SDS011;46342;49.046;11.920;2023-06-14T02:44:36;3.22;;;2.70;;
60494;SDS011;46342;49.046;11.920;2023-06-14T02:47:01;3.80;;;3.03;;
60494;SDS011;46342;49.046;11.920;2023-06-14T02:49:27;5.35;;;2.95;;
60494;SDS011;46342;49.046;11.920;2023-06-14T02:51:54;3.28;;;2.60;;
60494;SDS011;46342;49.046;11.920;2023-06-14T02:54:20;4.07;;;3.10;;
60494;SDS011;46342;49.046;11.920;2023-06-14T02:56:45;4.32;;;2.70;;
60494;SDS011;46342;49.046;11.920;2023-06-14T02:59:11;5.05;;;2.65;;
60494;SDS011;46342;49.046;11.920;2023-06-14T03:01:38;3.90;;;2.72;;
60494;SDS011;46342;49.046;11.920;2023-06-14T03:04:06;5.88;;;2.95;;
60494;SDS011;46342;49.046;11.920;2023-06-14T03:06:32;4.70;;;3.10;;
60494;SDS011;46342;49.046;11.920;2023-06-14T03:08:58;3.50;;;2.97;;
60494;SDS011;46342;49.046;11.920;2023-06-14T03:11:26;4.93;;;2.70;;
60494;SDS011;46342;49.046;11.920;2023-06-14T03:13:52;5.43;;;3.00;;
60494;SDS011;46342;49.046;11.920;2023-06-14T03:16:18;4.78;;;2.80;;
60494;SDS011;46342;49.046;11.920;2023-06-14T03:18:44;5.30;;;3.58;;
60494;SDS011;46342;49.046;11.920;2023-06-14T03:21:10;3.85;;;2.95;;
60494;SDS011;46342;49.046;11.920;2023-06-14T03:23:36;10.52;;;2.42;;
60494;SDS011;46342;49.046;11.920;2023-06-14T03:26:02;6.65;;;3.03;;
60494;SDS011;46342;49.046;11.920;2023-06-14T03:28:27;5.18;;;2.70;;
60494;SDS011;46342;49.046;11.920;2023-06-14T03:30:53;3.88;;;3.08;;
60494;SDS011;46342;49.046;11.920;2023-06-14T03:33:18;5.22;;;2.70;;
60494;SDS011;46342;49.046;11.920;2023-06-14T03:35:44;6.57;;;2.95;;
60494;SDS011;46342;49.046;11.920;2023-06-14T03:38:10;4.72;;;2.85;;
60494;SDS011;46342;49.046;11.920;2023-06-14T03:40:35;3.90;;;2.90;;
60494;SDS011;46342;49.046;11.920;2023-06-14T03:43:01;3.33;;;2.50;;
60494;SDS011;46342;49.046;11.920;2023-06-14T03:45:27;5.07;;;3.25;;
60494;SDS011;46342;49.046;11.920;2023-06-14T03:47:52;7.25;;;3.90;;
60494;SDS011;46342;49.046;11.920;2023-06-14T03:50:19;4.00;;;2.85;;
60494;SDS011;46342;49.046;11.920;2023-06-14T03:52:47;5.63;;;3.08;;
60494;SDS011;46342;49.046;11.920;2023-06-14T03:55:16;5.03;;;3.15;;
60494;SDS011;46342;49.046;11.920;2023-06-14T03:57:41;3.33;;;2.80;;
60494;SDS011;46342;49.046;11.920;2023-06-14T04:00:08;4.30;;;2.75;;
60494;SDS011;46342;49.046;11.920;2023-06-14T04:02:34;4.13;;;3.15;;
60494;SDS011;46342;49.046;11.920;2023-06-14T04:05:01;3.83;;;2.90;;
60494;SDS011;46342;49.046;11.920;2023-06-14T04:07:27;3.47;;;2.80;;
60494;SDS011;46342;49.046;11.920;2023-06-14T04:09:53;3.97;;;2.70;;
60494;SDS011;46342;49.046;11.920;2023-06-14T04:12:20;2.90;;;2.53;;
60494;SDS011;46342;49.046;11.920;2023-06-14T04:14:46;6.10;;;3.22;;
60494;SDS011;46342;49.046;11.920;2023-06-14T04:17:11;4.45;;;3.17;;
60494;SDS011;46342;49.046;11.920;2023-06-14T04:19:37;4.32;;;3.00;;
60494;SDS011;46342;49.046;11.920;2023-06-14T04:22:03;3.75;;;3.03;;
60494;SDS011;46342;49.046;11.920;2023-06-14T04:24:28;4.28;;;3.20;;
60494;SDS011;46342;49.046;11.920;2023-06-14T04:29:26;3.78;;;3.10;;
60494;SDS011;46342;49.046;11.920;2023-06-14T04:31:54;4.03;;;2.97;;
60494;SDS011;46342;49.046;11.920;2023-06-14T04:34:24;5.45;;;4.13;;
60494;SDS011;46342;49.046;11.920;2023-06-14T04:36:58;3.83;;;2.63;;
60494;SDS011;46342;49.046;11.920;2023-06-14T04:39:26;3.67;;;2.45;;
60494;SDS011;46342;49.046;11.920;2023-06-14T04:41:52;6.30;;;3.03;;
60494;SDS011;46342;49.046;11.920;2023-06-14T04:44:21;4.85;;;2.80;;
60494;SDS011;46342;49.046;11.920;2023-06-14T04:46:49;4.53;;;2.60;;
60494;SDS011;46342;49.046;11.920;2023-06-14T04:49:15;3.45;;;2.90;;
60494;SDS011;46342;49.046;11.920;2023-06-14T04:51:42;4.10;;;2.90;;
60494;SDS011;46342;49.046;11.920;2023-06-14T04:54:10;4.85;;;3.20;;
60494;SDS011;46342;49.046;11.920;2023-06-14T04:56:40;3.15;;;2.85;;
60494;SDS011;46342;49.046;11.920;2023-06-14T04:59:07;7.68;;;2.67;;
60494;SDS011;46342;49.046;11.920;2023-06-14T05:01:33;3.33;;;2.42;;
60494;SDS011;46342;49.046;11.920;2023-06-14T05:04:00;3.45;;;2.80;;
60494;SDS011;46342;49.046;11.920;2023-06-14T05:06:26;3.80;;;2.80;;
60494;SDS011;46342;49.046;11.920;2023-06-14T05:08:52;4.38;;;2.95;;
60494;SDS011;46342;49.046;11.920;2023-06-14T05:11:18;5.38;;;3.55;;
60494;SDS011;46342;49.046;11.920;2023-06-14T05:13:44;4.30;;;2.92;;
60494;SDS011;46342;49.046;11.920;2023-06-14T05:16:10;3.45;;;2.78;;
60494;SDS011;46342;49.046;11.920;2023-06-14T05:18:36;4.45;;;2.97;;
60494;SDS011;46342;49.046;11.920;2023-06-14T05:21:03;4.47;;;3.22;;
60494;SDS011;46342;49.046;11.920;2023-06-14T05:23:30;5.25;;;2.65;;
60494;SDS011;46342;49.046;11.920;2023-06-14T05:25:56;4.22;;;3.15;;
60494;SDS011;46342;49.046;11.920;2023-06-14T05:28:21;4.53;;;3.03;;
60494;SDS011;46342;49.046;11.920;2023-06-14T05:30:47;3.95;;;3.47;;
60494;SDS011;46342;49.046;11.920;2023-06-14T05:33:13;3.92;;;3.38;;
60494;SDS011;46342;49.046;11.920;2023-06-14T05:35:38;6.13;;;3.45;;
60494;SDS011;46342;49.046;11.920;2023-06-14T05:38:04;4.00;;;2.80;;
60494;SDS011;46342;49.046;11.920;2023-06-14T05:40:30;5.18;;;3.40;;
60494;SDS011;46342;49.046;11.920;2023-06-14T05:42:56;4.53;;;3.35;;
60494;SDS011;46342;49.046;11.920;2023-06-14T05:45:21;5.10;;;2.90;;
60494;SDS011;46342;49.046;11.920;2023-06-14T05:47:47;5.53;;;3.17;;
60494;SDS011;46342;49.046;11.920;2023-06-14T05:50:13;3.10;;;2.25;;
60494;SDS011;46342;49.046;11.920;2023-06-14T05:52:38;5.97;;;4.28;;
60494;SDS011;46342;49.046;11.920;2023-06-14T05:55:04;5.63;;;3.28;;
60494;SDS011;46342;49.046;11.920;2023-06-14T05:57:31;5.28;;;3.25;;
60494;SDS011;46342;49.046;11.920;2023-06-14T05:59:56;8.18;;;3.28;;
60494;SDS011;46342;49.046;11.920;2023-06-14T06:02:22;4.47;;;3.28;;
60494;SDS011;46342;49.046;11.920;2023-06-14T06:04:47;6.05;;;3.65;;
60494;SDS011;46342;49.046;11.920;2023-06-14T06:07:13;10.05;;;3.53;;
60494;SDS011;46342;49.046;11.920;2023-06-14T06:09:38;4.65;;;3.10;;
60494;SDS011;46342;49.046;11.920;2023-06-14T06:12:05;4.45;;;3.40;;
60494;SDS011;46342;49.046;11.920;2023-06-14T06:14:32;16.13;;;4.15;;
60494;SDS011;46342;49.046;11.920;2023-06-14T06:16:57;5.25;;;3.25;;
60494;SDS011;46342;49.046;11.920;2023-06-14T06:19:23;7.15;;;4.15;;
60494;SDS011;46342;49.046;11.920;2023-06-14T06:21:49;6.75;;;4.05;;
60494;SDS011;46342;49.046;11.920;2023-06-14T06:24:15;5.30;;;3.85;;
60494;SDS011;46342;49.046;11.920;2023-06-14T06:26:41;5.78;;;3.80;;
60494;SDS011;46342;49.046;11.920;2023-06-14T06:29:06;6.10;;;4.30;;
60494;SDS011;46342;49.046;11.920;2023-06-14T06:31:32;4.90;;;3.70;;
60494;SDS011;46342;49.046;11.920;2023-06-14T06:33:57;4.43;;;3.50;;
60494;SDS011;46342;49.046;11.920;2023-06-14T06:36:23;8.07;;;3.97;;
60494;SDS011;46342;49.046;11.920;2023-06-14T06:38:49;4.70;;;3.63;;
60494;SDS011;46342;49.046;11.920;2023-06-14T06:41:15;5.13;;;3.47;;
60494;SDS011;46342;49.046;11.920;2023-06-14T06:43:41;4.60;;;3.83;;
60494;SDS011;46342;49.046;11.920;2023-06-14T06:46:06;6.05;;;3.65;;
60494;SDS011;46342;49.046;11.920;2023-06-14T06:48:32;5.65;;;3.53;;
60494;SDS011;46342;49.046;11.920;2023-06-14T06:50:57;5.28;;;3.78;;
60494;SDS011;46342;49.046;11.920;2023-06-14T06:53:23;5.60;;;3.42;;
60494;SDS011;46342;49.046;11.920;2023-06-14T06:55:48;5.05;;;3.88;;
60494;SDS011;46342;49.046;11.920;2023-06-14T06:58:14;4.70;;;3.58;;
60494;SDS011;46342;49.046;11.920;2023-06-14T07:00:40;4.55;;;3.65;;
60494;SDS011;46342;49.046;11.920;2023-06-14T07:03:06;4.97;;;3.58;;
60494;SDS011;46342;49.046;11.920;2023-06-14T07:05:31;5.95;;;4.22;;
60494;SDS011;46342;49.046;11.920;2023-06-14T07:07:57;7.53;;;4.18;;
60494;SDS011;46342;49.046;11.920;2023-06-14T07:10:22;5.25;;;3.67;;
60494;SDS011;46342;49.046;11.920;2023-06-14T07:12:49;4.75;;;4.00;;
60494;SDS011;46342;49.046;11.920;2023-06-14T07:15:15;8.35;;;4.40;;
60494;SDS011;46342;49.046;11.920;2023-06-14T07:17:41;6.53;;;4.57;;
60494;SDS011;46342;49.046;11.920;2023-06-14T07:20:07;5.20;;;3.85;;
60494;SDS011;46342;49.046;11.920;2023-06-14T07:22:40;5.72;;;4.03;;
60494;SDS011;46342;49.046;11.920;2023-06-14T07:25:07;13.43;;;5.25;;
60494;SDS011;46342;49.046;11.920;2023-06-14T07:27:38;6.80;;;4.53;;
60494;SDS011;46342;49.046;11.920;2023-06-14T07:30:05;5.32;;;3.97;;
60494;SDS011;46342;49.046;11.920;2023-06-14T07:32:31;6.53;;;4.20;;
60494;SDS011;46342;49.046;11.920;2023-06-14T07:34:57;7.25;;;5.28;;
60494;SDS011;46342;49.046;11.920;2023-06-14T07:37:23;5.53;;;4.00;;
60494;SDS011;46342;49.046;11.920;2023-06-14T07:39:48;4.65;;;3.60;;
60494;SDS011;46342;49.046;11.920;2023-06-14T07:42:14;5.78;;;3.38;;
60494;SDS011;46342;49.046;11.920;2023-06-14T07:44:39;5.32;;;3.58;;
60494;SDS011;46342;49.046;11.920;2023-06-14T07:47:05;9.15;;;3.35;;
60494;SDS011;46342;49.046;11.920;2023-06-14T07:49:31;5.45;;;4.00;;
60494;SDS011;46342;49.046;11.920;2023-06-14T07:51:56;8.63;;;3.88;;
60494;SDS011;46342;49.046;11.920;2023-06-14T07:54:22;11.90;;;4.20;;
60494;SDS011;46342;49.046;11.920;2023-06-14T07:56:51;5.88;;;3.40;;
60494;SDS011;46342;49.046;11.920;2023-06-14T07:59:17;6.00;;;3.70;;
60494;SDS011;46342;49.046;11.920;2023-06-14T08:01:42;6.03;;;3.90;;
60494;SDS011;46342;49.046;11.920;2023-06-14T08:04:12;4.15;;;3.67;;
60494;SDS011;46342;49.046;11.920;2023-06-14T08:06:38;4.97;;;3.63;;
60494;SDS011;46342;49.046;11.920;2023-06-14T08:09:04;5.05;;;3.58;;
60494;SDS011;46342;49.046;11.920;2023-06-14T08:11:30;3.78;;;3.38;;
60494;SDS011;46342;49.046;11.920;2023-06-14T08:13:56;6.15;;;3.45;;
60494;SDS011;46342;49.046;11.920;2023-06-14T08:16:22;8.05;;;3.90;;
60494;SDS011;46342;49.046;11.920;2023-06-14T08:18:48;6.13;;;3.67;;
60494;SDS011;46342;49.046;11.920;2023-06-14T08:21:13;6.63;;;4.07;;
60494;SDS011;46342;49.046;11.920;2023-06-14T08:23:40;5.75;;;3.78;;
60494;SDS011;46342;49.046;11.920;2023-06-14T08:26:08;5.30;;;4.22;;
60494;SDS011;46342;49.046;11.920;2023-06-14T08:28:34;5.25;;;3.97;;
60494;SDS011;46342;49.046;11.920;2023-06-14T08:30:59;5.78;;;3.70;;
60494;SDS011;46342;49.046;11.920;2023-06-14T08:33:25;5.28;;;3.72;;
60494;SDS011;46342;49.046;11.920;2023-06-14T08:35:50;7.82;;;3.97;;
60494;SDS011;46342;49.046;11.920;2023-06-14T08:38:16;6.22;;;3.55;;
60494;SDS011;46342;49.046;11.920;2023-06-14T08:40:42;4.80;;;3.25;;
60494;SDS011;46342;49.046;11.920;2023-06-14T08:43:07;5.60;;;3.78;;
60494;SDS011;46342;49.046;11.920;2023-06-14T08:45:33;4.90;;;3.67;;
60494;SDS011;46342;49.046;11.920;2023-06-14T08:47:59;4.03;;;3.13;;
60494;SDS011;46342;49.046;11.920;2023-06-14T08:50:25;4.30;;;3.78;;
60494;SDS011;46342;49.046;11.920;2023-06-14T08:52:54;5.82;;;3.65;;
60494;SDS011;46342;49.046;11.920;2023-06-14T08:55:25;12.05;;;3.67;;
60494;SDS011;46342;49.046;11.920;2023-06-14T08:57:53;7.60;;;3.60;;
60494;SDS011;46342;49.046;11.920;2023-06-14T09:00:20;3.67;;;3.05;;
60494;SDS011;46342;49.046;11.920;2023-06-14T09:02:47;5.00;;;4.22;;
60494;SDS011;46342;49.046;11.920;2023-06-14T09:05:13;6.60;;;4.05;;
60494;SDS011;46342;49.046;11.920;2023-06-14T09:07:39;5.60;;;4.18;;
60494;SDS011;46342;49.046;11.920;2023-06-14T09:12:41;4.95;;;3.10;;
60494;SDS011;46342;49.046;11.920;2023-06-14T09:15:08;4.07;;;3.40;;
60494;SDS011;46342;49.046;11.920;2023-06-14T09:17:38;6.43;;;3.63;;
60494;SDS011;46342;49.046;11.920;2023-06-14T09:20:07;11.98;;;3.58;;
60494;SDS011;46342;49.046;11.920;2023-06-14T09:22:43;5.35;;;3.67;;
60494;SDS011;46342;49.046;11.920;2023-06-14T09:25:09;5.13;;;3.50;;
60494;SDS011;46342;49.046;11.920;2023-06-14T09:27:35;3.92;;;3.53;;
60494;SDS011;46342;49.046;11.920;2023-06-14T09:30:03;4.88;;;3.35;;
60494;SDS011;46342;49.046;11.920;2023-06-14T09:32:30;5.05;;;3.55;;
60494;SDS011;46342;49.046;11.920;2023-06-14T09:34:56;4.72;;;3.45;;
60494;SDS011;46342;49.046;11.920;2023-06-14T09:37:28;5.03;;;3.55;;
60494;SDS011;46342;49.046;11.920;2023-06-14T09:39:54;5.45;;;3.70;;
60494;SDS011;46342;49.046;11.920;2023-06-14T09:42:20;4.13;;;3.60;;
60494;SDS011;46342;49.046;11.920;2023-06-14T09:44:49;4.47;;;3.88;;
60494;SDS011;46342;49.046;11.920;2023-06-14T09:47:15;4.82;;;3.45;;
60494;SDS011;46342;49.046;11.920;2023-06-14T09:49:41;4.70;;;3.50;;
60494;SDS011;46342;49.046;11.920;2023-06-14T09:52:10;6.50;;;3.20;;
60494;SDS011;46342;49.046;11.920;2023-06-14T09:54:40;5.38;;;3.60;;
60494;SDS011;46342;49.046;11.920;2023-06-14T09:57:20;6.28;;;3.88;;
60494;SDS011;46342;49.046;11.920;2023-06-14T09:59:47;9.80;;;3.47;;
60494;SDS011;46342;49.046;11.920;2023-06-14T10:02:26;5.40;;;3.70;;
60494;SDS011;46342;49.046;11.920;2023-06-14T10:05:15;7.13;;;3.83;;
60494;SDS011;46342;49.046;11.920;2023-06-14T10:07:44;7.47;;;4.40;;
60494;SDS011;46342;49.046;11.920;2023-06-14T10:10:15;6.03;;;4.05;;
60494;SDS011;46342;49.046;11.920;2023-06-14T10:12:40;4.25;;;3.60;;
60494;SDS011;46342;49.046;11.920;2023-06-14T10:15:08;8.43;;;3.92;;
60494;SDS011;46342;49.046;11.920;2023-06-14T10:17:39;4.25;;;3.17;;
60494;SDS011;46342;49.046;11.920;2023-06-14T10:23:17;5.40;;;3.50;;
60494;SDS011;46342;49.046;11.920;2023-06-14T10:25:49;5.25;;;3.65;;
60494;SDS011;46342;49.046;11.920;2023-06-14T10:33:33;4.32;;;3.10;;
60494;SDS011;46342;49.046;11.920;2023-06-14T10:38:45;6.60;;;3.03;;
60494;SDS011;46342;49.046;11.920;2023-06-14T10:41:11;9.30;;;3.90;;
60494;SDS011;46342;49.046;11.920;2023-06-14T10:43:36;5.32;;;3.65;;
60494;SDS011;46342;49.046;11.920;2023-06-14T10:48:40;6.25;;;3.45;;
60494;SDS011;46342;49.046;11.920;2023-06-14T10:51:13;3.92;;;3.20;;
60494;SDS011;46342;49.046;11.920;2023-06-14T10:53:45;4.72;;;3.67;;
60494;SDS011;46342;49.046;11.920;2023-06-14T10:56:30;8.80;;;3.88;;
60494;SDS011;46342;49.046;11.920;2023-06-14T10:58:57;4.90;;;3.78;;
60494;SDS011;46342;49.046;11.920;2023-06-14T11:01:28;7.22;;;3.67;;
60494;SDS011;46342;49.046;11.920;2023-06-14T11:04:10;4.53;;;3.70;;
60494;SDS011;46342;49.046;11.920;2023-06-14T11:06:44;4.60;;;3.58;;
60494;SDS011;46342;49.046;11.920;2023-06-14T11:09:20;5.28;;;3.50;;
60494;SDS011;46342;49.046;11.920;2023-06-14T11:12:10;5.00;;;3.67;;
60494;SDS011;46342;49.046;11.920;2023-06-14T11:14:39;9.23;;;3.42;;
60494;SDS011;46342;49.046;11.920;2023-06-14T11:17:05;6.50;;;3.60;;
60494;SDS011;46342;49.046;11.920;2023-06-14T11:19:30;6.55;;;3.75;;
60494;SDS011;46342;49.046;11.920;2023-06-14T11:21:56;5.70;;;4.25;;
60494;SDS011;46342;49.046;11.920;2023-06-14T11:24:22;4.50;;;3.75;;
60494;SDS011;46342;49.046;11.920;2023-06-14T11:26:48;6.78;;;3.60;;
60494;SDS011;46342;49.046;11.920;2023-06-14T11:29:15;6.60;;;3.47;;
60494;SDS011;46342;49.046;11.920;2023-06-14T11:31:44;4.85;;;3.63;;
60494;SDS011;46342;49.046;11.920;2023-06-14T11:34:10;4.57;;;3.45;;
60494;SDS011;46342;49.046;11.920;2023-06-14T11:36:38;4.28;;;3.45;;
60494;SDS011;46342;49.046;11.920;2023-06-14T11:39:04;5.70;;;3.90;;
60494;SDS011;46342;49.046;11.920;2023-06-14T11:41:36;4.57;;;3.75;;
60494;SDS011;46342;49.046;11.920;2023-06-14T11:44:02;4.95;;;3.10;;
60494;SDS011;46342;49.046;11.920;2023-06-14T11:46:28;5.82;;;4.22;;
60494;SDS011;46342;49.046;11.920;2023-06-14T11:48:54;5.32;;;3.97;;
60494;SDS011;46342;49.046;11.920;2023-06-14T11:51:20;5.68;;;3.50;;
60494;SDS011;46342;49.046;11.920;2023-06-14T11:53:46;7.05;;;3.70;;
60494;SDS011;46342;49.046;11.920;2023-06-14T11:56:12;4.03;;;3.10;;
60494;SDS011;46342;49.046;11.920;2023-06-14T11:58:38;5.30;;;3.53;;
60494;SDS011;46342;49.046;11.920;2023-06-14T12:01:04;6.00;;;3.65;;
60494;SDS011;46342;49.046;11.920;2023-06-14T12:03:29;10.13;;;3.78;;
60494;SDS011;46342;49.046;11.920;2023-06-14T12:06:04;5.65;;;3.58;;
60494;SDS011;46342;49.046;11.920;2023-06-14T12:08:38;8.10;;;4.32;;
60494;SDS011;46342;49.046;11.920;2023-06-14T12:11:05;4.47;;;3.88;;
60494;SDS011;46342;49.046;11.920;2023-06-14T12:13:33;3.50;;;3.20;;
60494;SDS011;46342;49.046;11.920;2023-06-14T12:15:59;4.60;;;3.70;;
60494;SDS011;46342;49.046;11.920;2023-06-14T12:18:31;6.22;;;4.00;;
60494;SDS011;46342;49.046;11.920;2023-06-14T12:21:04;5.75;;;3.75;;
60494;SDS011;46342;49.046;11.920;2023-06-14T12:26:17;4.05;;;3.17;;
60494;SDS011;46342;49.046;11.920;2023-06-14T12:28:44;5.55;;;3.22;;
60494;SDS011;46342;49.046;11.920;2023-06-14T12:31:11;4.75;;;3.60;;
60494;SDS011;46342;49.046;11.920;2023-06-14T12:33:38;6.07;;;3.35;;
60494;SDS011;46342;49.046;11.920;2023-06-14T12:36:05;6.45;;;3.45;;
60494;SDS011;46342;49.046;11.920;2023-06-14T12:38:32;4.22;;;3.65;;
60494;SDS011;46342;49.046;11.920;2023-06-14T12:40:58;8.07;;;3.37;;
60494;SDS011;46342;49.046;11.920;2023-06-14T12:43:23;3.63;;;2.97;;
60494;SDS011;46342;49.046;11.920;2023-06-14T12:45:49;6.65;;;3.30;;
60494;SDS011;46342;49.046;11.920;2023-06-14T12:48:15;8.38;;;3.63;;
60494;SDS011;46342;49.046;11.920;2023-06-14T12:50:40;4.63;;;3.28;;
60494;SDS011;46342;49.046;11.920;2023-06-14T12:53:06;4.75;;;3.50;;
60494;SDS011;46342;49.046;11.920;2023-06-14T12:55:32;7.35;;;3.83;;
60494;SDS011;46342;49.046;11.920;2023-06-14T12:57:58;6.00;;;3.40;;
60494;SDS011;46342;49.046;11.920;2023-06-14T13:00:23;4.13;;;3.17;;
60494;SDS011;46342;49.046;11.920;2023-06-14T13:02:51;3.95;;;3.28;;
60494;SDS011;46342;49.046;11.920;2023-06-14T13:05:17;5.93;;;4.00;;
60494;SDS011;46342;49.046;11.920;2023-06-14T13:07:43;4.43;;;3.75;;
60494;SDS011;46342;49.046;11.920;2023-06-14T13:10:09;4.47;;;3.27;;
60494;SDS011;46342;49.046;11.920;2023-06-14T13:12:35;4.97;;;3.50;;
60494;SDS011;46342;49.046;11.920;2023-06-14T13:15:01;19.40;;;3.60;;
60494;SDS011;46342;49.046;11.920;2023-06-14T13:17:27;5.00;;;3.33;;
60494;SDS011;46342;49.046;11.920;2023-06-14T13:19:52;4.53;;;2.88;;
60494;SDS011;46342;49.046;11.920;2023-06-14T13:22:18;3.88;;;3.30;;
60494;SDS011;46342;49.046;11.920;2023-06-14T13:24:44;4.68;;;3.03;;
60494;SDS011;46342;49.046;11.920;2023-06-14T13:27:09;4.47;;;3.30;;
60494;SDS011;46342;49.046;11.920;2023-06-14T13:29:35;4.72;;;3.88;;
60494;SDS011;46342;49.046;11.920;2023-06-14T13:32:02;5.20;;;3.47;;
60494;SDS011;46342;49.046;11.920;2023-06-14T13:34:28;5.10;;;3.37;;
60494;SDS011;46342;49.046;11.920;2023-06-14T13:36:53;3.88;;;2.83;;
60494;SDS011;46342;49.046;11.920;2023-06-14T13:39:19;3.45;;;3.00;;
60494;SDS011;46342;49.046;11.920;2023-06-14T13:41:44;3.38;;;3.08;;
60494;SDS011;46342;49.046;11.920;2023-06-14T13:44:10;3.63;;;2.70;;
60494;SDS011;46342;49.046;11.920;2023-06-14T13:46:41;5.38;;;3.97;;
60494;SDS011;46342;49.046;11.920;2023-06-14T13:49:07;5.90;;;3.17;;
60494;SDS011;46342;49.046;11.920;2023-06-14T13:51:33;5.97;;;3.50;;
60494;SDS011;46342;49.046;11.920;2023-06-14T13:54:00;6.95;;;3.60;;
60494;SDS011;46342;49.046;11.920;2023-06-14T13:56:26;6.68;;;4.13;;
60494;SDS011;46342;49.046;11.920;2023-06-14T13:58:52;3.30;;;3.00;;
60494;SDS011;46342;49.046;11.920;2023-06-14T14:01:17;5.40;;;3.53;;
60494;SDS011;46342;49.046;11.920;2023-06-14T14:03:44;4.20;;;3.20;;
60494;SDS011;46342;49.046;11.920;2023-06-14T14:06:14;6.68;;;3.60;;
60494;SDS011;46342;49.046;11.920;2023-06-14T14:08:40;4.07;;;3.13;;
60494;SDS011;46342;49.046;11.920;2023-06-14T14:11:06;5.60;;;4.15;;
60494;SDS011;46342;49.046;11.920;2023-06-14T14:13:32;9.35;;;4.40;;
60494;SDS011;46342;49.046;11.920;2023-06-14T14:15:58;4.20;;;3.80;;
60494;SDS011;46342;49.046;11.920;2023-06-14T14:18:24;5.40;;;3.75;;
60494;SDS011;46342;49.046;11.920;2023-06-14T14:20:50;4.00;;;3.20;;
60494;SDS011;46342;49.046;11.920;2023-06-14T14:23:16;5.38;;;3.72;;
60494;SDS011;46342;49.046;11.920;2023-06-14T14:25:42;3.20;;;2.90;;
60494;SDS011;46342;49.046;11.920;2023-06-14T14:28:07;6.45;;;3.65;;
60494;SDS011;46342;49.046;11.920;2023-06-14T14:30:33;3.95;;;3.65;;
60494;SDS011;46342;49.046;11.920;2023-06-14T14:32:59;6.32;;;3.60;;
60494;SDS011;46342;49.046;11.920;2023-06-14T14:35:24;4.75;;;3.70;;
60494;SDS011;46342;49.046;11.920;2023-06-14T14:37:55;4.18;;;2.90;;
60494;SDS011;46342;49.046;11.920;2023-06-14T14:40:21;5.38;;;3.42;;
60494;SDS011;46342;49.046;11.920;2023-06-14T14:42:46;4.10;;;3.05;;
60494;SDS011;46342;49.046;11.920;2023-06-14T14:45:12;11.45;;;3.70;;
60494;SDS011;46342;49.046;11.920;2023-06-14T14:47:38;5.55;;;2.90;;
60494;SDS011;46342;49.046;11.920;2023-06-14T14:50:03;5.93;;;3.22;;
60494;SDS011;46342;49.046;11.920;2023-06-14T14:52:33;3.88;;;3.17;;
60494;SDS011;46342;49.046;11.920;2023-06-14T14:54:59;3.20;;;2.80;;
60494;SDS011;46342;49.046;11.920;2023-06-14T14:57:25;3.55;;;3.22;;